This is the latest recevied weather packets stored in our database for station/object N3DOU-1. If no packets are shown the sender has not sent any weather packets the latest 10 day(s).
| Time | Temp. | Humidity | Pressure | Rain* | Wind** | Luminosity | Snow |
|---|---|---|---|---|---|---|---|
| 1777983084 | 18.33° C | 63% | 1012.2 hPa | 0 mm | - | - | - |
| 1777982183 | 18.33° C | 65% | 1012.1 hPa | 0 mm | - | - | - |
| 1777978583 | 16.11° C | 72% | 1011.7 hPa | 0 mm | - | - | - |
| 1777976783 | 16.11° C | 72% | 1011.2 hPa | 0 mm | - | - | - |
| 1777975885 | 15.56° C | 73% | 1011.1 hPa | 0 mm | - | - | - |
| 1777974984 | 15.56° C | 72% | 1011.1 hPa | 0 mm | - | - | - |
| 1777974082 | 16.11° C | 69% | 1011.1 hPa | 0 mm | - | - | - |
| 1777973183 | 16.67° C | 67% | 1011 hPa | 0 mm | - | - | - |
| 1777972284 | 16.67° C | 66% | 1010.9 hPa | 0 mm | - | - | - |
| 1777971382 | 16.67° C | 65% | 1010.9 hPa | 0 mm | - | - | - |
| 1777970484 | 17.22° C | 65% | 1010.9 hPa | 0 mm | - | - | - |
| 1777969583 | 17.22° C | 66% | 1010.7 hPa | 0 mm | - | - | - |
| 1777968682 | 17.22° C | 67% | 1010.7 hPa | 0 mm | - | - | - |
| 1777967784 | 17.22° C | 67% | 1010.7 hPa | 0 mm | - | - | - |
| 1777966884 | 17.22° C | 67% | 1010.7 hPa | 0 mm | - | - | - |
| 1777965984 | 17.22° C | 68% | 1010.6 hPa | 0 mm | - | - | - |
| 1777965084 | 17.22° C | 68% | 1010.6 hPa | 0 mm | - | - | - |
| 1777964183 | 17.22° C | 68% | 1010.6 hPa | 0 mm | - | - | - |
| 1777963284 | 17.22° C | 69% | 1010.6 hPa | 0 mm | - | - | - |
| 1777962383 | 16.67° C | 70% | 1010.7 hPa | 0 mm | - | - | - |
| 1777961483 | 16.11° C | 70% | 1010.6 hPa | 0 mm | - | - | - |
| 1777960582 | 16.11° C | 72% | 1010.7 hPa | 0 mm | - | - | - |
| 1777959684 | 15.56° C | 72% | 1010.7 hPa | 0 mm | - | - | - |
| 1777958783 | 15.56° C | 72% | 1010.8 hPa | 0 mm | - | - | - |
| 1777957883 | 15.56° C | 71% | 1010.7 hPa | 0 mm | - | - | - |
* Rain latest hour (hover to see other rain measurements)
** Current wind speed in m/s (hover to see current wind gust speed)